Latest Weather Observations for Dennes Point

IDT60801

Issued at 10:03 pm EST Saturday 1 October 2016 (issued every 30 minutes, with the page automatically refreshed every 10 minutes)

About weather observations | Map of weather stations | Latest weather observations for TAS | Other Formats
Station Details ID: 094255 Name: DENNES POINT Lat: -43.06 Lon: 147.36 Height: 5.67 m
Data from the previous 72 hours. | See also: Recent months at Dennes Point
Date/Time
EST
Temp
°C
App
Temp
°C
Dew
Point
°C
Rel
Hum
%
Delta-T
°C
Wind Press
QNH
hPa
Press
MSL
hPa
Rain since
9am
mm
Dir  Spd
km/h
Gust
km/h
Spd
kts
Gust
kts
01/10:00pm 12.2 9.5 7.3 72 2.4 WSW 11 17 6 9 997.0 997.0 5.0
01/09:30pm 12.4 10.1 7.3 71 2.5 NW 9 13 5 7 997.0 997.0 5.0
01/09:00pm 12.6 9.1 7.1 69 2.7 WNW 15 19 8 10 996.6 996.6 5.0
01/08:30pm 13.0 10.3 7.2 68 2.8 WNW 11 20 6 11 996.3 996.3 5.0
01/08:00pm 12.9 11.2 7.4 69 2.7 SSW 6 15 3 8 995.9 995.9 5.0
01/07:30pm 12.3 10.7 8.2 76 2.0 SW 6 7 3 4 995.4 995.4 5.0
01/07:00pm 12.8 10.6 7.9 72 2.4 WSW 9 15 5 8 994.8 994.8 5.0
01/06:30pm 13.1 8.6 7.1 67 2.9 WSW 20 24 11 13 994.3 994.3 5.0
01/06:00pm 13.1 9.3 7.5 69 2.8 W 17 22 9 12 993.8 993.8 5.0
01/05:30pm 14.5 12.2 8.9 69 2.8 W 11 19 6 10 993.3 993.3 5.0
01/05:00pm 13.8 12.2 10.2 79 1.9 WNW 9 13 5 7 992.7 992.7 5.0
01/04:30pm 13.8 12.8 10.4 80 1.8 W 6 7 3 4 992.4 992.4 5.0
01/04:00pm 14.2 12.4 9.6 74 2.4 SSW 9 13 5 7 991.8 991.8 1.8
01/03:30pm 14.4 11.5 9.8 74 2.4 WSW 15 20 8 11 991.4 991.4 1.8
01/03:00pm 14.2 10.2 9.2 72 2.6 N 20 28 11 15 990.9 990.9 1.8
01/02:30pm 14.1 10.4 9.5 74 2.4 N 19 24 10 13 991.0 991.0 1.8
01/02:00pm 14.4 12.6 10.8 79 1.9 ENE 11 13 6 7 991.1 991.1 1.8
01/01:30pm 12.6 10.1 9.6 82 1.5 NNE 13 17 7 9 991.2 991.2 1.8
01/01:00pm 12.9 9.0 9.5 80 1.7 NNE 20 22 11 12 991.5 991.5 1.8
01/12:30pm 12.0 8.2 9.2 83 1.4 NNE 19 22 10 12 991.8 991.8 1.8
01/12:00pm 11.3 7.5 8.9 85 1.2 NNE 19 22 10 12 992.2 992.2 1.8
01/11:30am 10.8 7.3 8.9 88 0.9 NNE 17 19 9 10 992.3 992.3 1.8
01/11:00am 10.5 7.0 8.9 90 0.8 NNE 17 20 9 11 992.6 992.6 1.8
01/10:30am 10.3 6.4 8.6 89 0.8 NE 19 24 10 13 992.9 992.9 1.8
01/10:00am 10.0 6.0 8.4 90 0.8 NE 19 24 10 13 993.2 993.2 1.8
01/09:30am 9.9 6.3 8.2 89 0.8 NE 17 19 9 10 993.5 993.5 0.8
01/09:00am 9.7 6.0 8.0 89 0.8 NE 17 20 9 11 993.7 993.7 2.6
01/08:30am 9.8 5.4 7.6 86 1.0 NE 20 24 11 13 993.6 993.6 2.2
01/08:00am 10.1 5.8 8.0 87 1.0 NNE 20 28 11 15 993.6 993.6 1.6
01/07:30am 10.1 5.2 6.8 80 1.6 N 22 28 12 15 993.6 993.6 1.4
01/07:00am 10.6 5.3 6.7 77 1.9 NNE 24 30 13 16 993.4 993.4 1.4
01/06:30am 10.6 6.0 6.6 76 1.9 NNE 20 26 11 14 993.2 993.2 1.4
01/06:00am 10.4 5.3 6.2 75 2.0 NE 22 28 12 15 993.1 993.1 1.4
01/05:30am 9.9 4.7 5.7 75 1.9 NE 22 26 12 14 992.7 992.7 1.4
01/05:00am 10.1 5.5 6.3 77 1.8 NE 20 26 11 14 992.5 992.5 1.4
01/04:30am 10.4 5.0 6.5 77 1.8 NNE 24 28 13 15 992.1 992.1 1.4
01/04:00am 10.4 4.9 5.8 73 2.1 N 24 28 13 15 992.0 992.0 1.4
01/03:30am 10.0 5.8 5.6 74 2.0 N 17 20 9 11 992.1 992.1 1.4
01/03:00am 10.2 5.5 6.0 75 2.0 N 20 26 11 14 992.3 992.3 1.4
01/02:30am 10.1 3.8 5.5 73 2.1 NNE 28 33 15 18 992.2 992.2 1.4
01/02:00am 10.1 4.5 5.5 73 2.1 NE 24 28 13 15 992.4 992.4 1.4
01/01:30am 10.2 4.6 5.6 73 2.1 NE 24 28 13 15 992.5 992.5 1.4
01/01:00am 10.4 4.5 5.8 73 2.1 NNE 26 37 14 20 992.7 992.7 1.4
01/12:30am 10.5 3.9 5.9 73 2.1 NNE 30 37 16 20 992.9 992.9 1.4
01/12:00am 10.7 3.6 5.7 71 2.3 NNE 32 39 17 21 992.7 992.7 1.4
 
Date/Time
EST
Temp
°C
App
Temp
°C
Dew
Point
°C
Rel
Hum
%
Delta-T
°C
Wind Press
QNH
hPa
Press
MSL
hPa
Rain since
9am
mm
Dir  Spd
km/h
Gust
km/h
Spd
kts
Gust
kts
30/11:30pm 10.9 3.9 6.1 72 2.2 NNE 32 41 17 22 992.6 992.6 1.4
30/11:00pm 10.9 3.8 5.7 70 2.4 NNE 32 37 17 20 992.6 992.6 1.4
30/10:30pm 11.2 4.6 5.9 70 2.5 N 30 37 16 20 992.9 992.9 1.4
30/10:00pm 11.4 5.2 6.3 71 2.4 N 28 32 15 17 993.0 993.0 1.4
30/09:30pm 11.4 4.8 6.1 70 2.5 N 30 35 16 19 993.0 993.0 1.4
30/09:00pm 11.7 4.1 5.8 67 2.8 NNE 35 46 19 25 992.8 992.8 1.4
30/08:30pm 11.8 4.9 6.5 70 2.5 NNE 32 43 17 23 992.5 992.5 1.4
30/08:00pm 12.0 4.6 6.7 70 2.5 N 35 43 19 23 992.3 992.3 1.4
30/07:30pm 12.1 4.9 5.7 65 3.0 N 33 44 18 24 992.0 992.0 1.4
30/07:00pm 12.1 5.0 6.4 68 2.7 N 33 43 18 23 991.2 991.2 1.4
30/06:30pm 12.7 5.7 6.1 64 3.1 NNE 32 39 17 21 990.5 990.5 1.4
30/06:11pm 13.1 4.7 5.8 61 3.4 NNE 39 57 21 31 990.0 990.0 1.4
30/06:00pm 13.2 7.2 7.0 66 3.0 NNE 28 35 15 19 989.7 989.7 1.4
30/05:30pm 13.1 8.7 7.3 68 2.8 N 20 26 11 14 989.0 989.0 1.4
30/05:00pm 12.9 8.2 7.6 70 2.6 N 22 28 12 15 988.5 988.5 1.4
30/04:30pm 13.3 8.9 7.5 68 2.8 N 20 24 11 13 988.0 988.0 1.4
30/04:00pm 13.2 8.5 7.6 69 2.8 N 22 28 12 15 987.6 987.6 1.4
30/03:30pm 13.2 9.9 9.6 79 1.8 N 17 22 9 12 987.4 987.4 1.4
30/03:00pm 12.8 7.8 9.6 81 1.6 N 26 32 14 17 987.0 987.0 1.4
30/02:30pm 13.1 8.9 9.9 81 1.6 NE 22 30 12 16 986.9 986.9 1.4
30/02:00pm 12.3 7.1 10.2 87 1.1 NE 28 37 15 20 986.9 986.9 1.4
30/01:30pm 12.6 9.8 10.1 85 1.3 SE 15 26 8 14 986.9 986.9 1.4
30/01:00pm 13.0 9.6 10.5 85 1.3 ESE 19 28 10 15 987.4 987.4 1.4
30/12:30pm 12.3 7.2 10.5 89 0.9 SE 28 39 15 21 987.5 987.5 1.2
30/12:00pm 13.1 9.5 10.6 85 1.3 SE 20 35 11 19 987.9 987.9 0.6
30/11:30am 13.6 8.9 10.6 82 1.6 SE 26 41 14 22 988.2 988.2 0.6
30/11:00am 13.5 9.1 10.3 81 1.7 ESE 24 35 13 19 989.0 989.0 0.6
30/10:30am 13.6 7.1 10.2 80 1.8 E 35 50 19 27 989.3 989.3 0.6
30/10:00am 13.4 5.4 10.6 83 1.5 E 43 56 23 30 989.4 989.4 0.6
30/09:30am 13.0 4.2 10.9 87 1.1 E 48 61 26 33 989.4 989.4 0.6
30/09:14am 12.8 7.0 11.4 91 0.7 ESE 33 52 18 28 989.6 989.6 0.4
30/09:00am 12.7 7.4 11.4 92 0.7 ESE 30 43 16 23 989.8 989.8 10.4
30/08:30am 12.4 5.8 11.3 93 0.6 SE 37 50 20 27 989.9 989.9 9.4
30/08:20am 12.3 7.4 11.2 93 0.6 SE 28 48 15 26 990.1 990.1 9.2
30/08:00am 12.1 9.6 11.0 93 0.6 SE 15 33 8 18 990.5 990.5 8.0
30/07:30am 12.3 9.8 11.0 92 0.7 SE 15 30 8 16 991.3 991.3 6.2
30/07:00am 12.5 8.2 10.9 90 0.8 ESE 24 33 13 18 991.9 991.9 4.8
30/06:30am 12.7 8.7 10.6 87 1.1 ESE 22 37 12 20 991.7 991.7 3.6
30/06:00am 12.6 7.2 11.0 90 0.8 ESE 30 37 16 20 991.8 991.8 3.4
30/05:30am 12.7 6.4 10.9 89 0.9 E 35 46 19 25 991.8 991.8 2.6
30/05:00am 12.7 8.5 11.1 90 0.8 ESE 24 39 13 21 991.6 991.6 2.4
30/04:30am 13.0 5.8 10.7 86 1.2 E 39 52 21 28 991.5 991.5 1.8
30/04:00am 13.4 6.2 10.6 83 1.5 E 39 52 21 28 991.5 991.5 1.6
30/03:30am 13.1 5.0 10.8 86 1.2 E 44 56 24 30 991.8 991.8 1.6
30/03:00am 13.1 4.7 11.0 87 1.1 ENE 46 54 25 29 992.1 992.1 1.0
30/02:30am 13.4 4.6 10.8 84 1.4 E 48 59 26 32 992.0 992.0 1.0
30/02:00am 13.3 5.8 10.8 85 1.3 E 41 52 22 28 992.4 992.4 1.0
30/01:30am 13.0 5.0 11.1 88 1.0 E 44 57 24 31 992.9 992.9 1.0
30/01:00am 13.2 5.1 10.9 86 1.2 E 44 54 24 29 993.0 993.0 1.0
30/12:30am 13.2 5.1 10.6 84 1.4 ENE 44 57 24 31 993.3 993.3 0.8
30/12:00am 12.8 4.9 10.9 88 1.0 E 43 52 23 28 993.5 993.5 0.2
 
Date/Time
EST
Temp
°C
App
Temp
°C
Dew
Point
°C
Rel
Hum
%
Delta-T
°C
Wind Press
QNH
hPa
Press
MSL
hPa
Rain since
9am
mm
Dir  Spd
km/h
Gust
km/h
Spd
kts
Gust
kts
29/11:30pm 13.5 5.4 10.7 83 1.5 ENE 44 54 24 29 993.6 993.6 0.2
29/11:00pm 13.6 4.6 10.2 80 1.8 ENE 48 59 26 32 993.8 993.8 0.2
29/10:30pm 13.4 5.2 10.4 82 1.6 ENE 44 54 24 29 994.1 994.1 0.2
29/10:00pm 13.4 5.1 10.0 80 1.8 ENE 44 56 24 30 994.2 994.2 0.2
29/09:39pm 13.5 5.1 9.7 78 1.9 ENE 44 67 24 36 994.3 994.3 0.2
29/09:30pm 13.4 4.7 9.8 79 1.8 ENE 46 57 25 31 994.5 994.5 0.2
29/09:00pm 13.6 5.2 9.5 76 2.1 ENE 44 56 24 30 994.5 994.5 0.2
29/08:30pm 13.3 5.9 9.7 79 1.8 ENE 39 44 21 24 994.8 994.8 0.2
29/08:00pm 13.4 6.4 9.8 79 1.9 ENE 37 46 20 25 994.7 994.7 0.2
29/07:30pm 13.2 4.9 10.0 81 1.6 ENE 44 57 24 31 994.5 994.5 0.2
29/07:00pm 12.9 4.8 10.6 86 1.2 ENE 44 56 24 30 994.5 994.5 0.2
29/06:30pm 13.0 4.8 10.5 85 1.3 ENE 44 52 24 28 994.9 994.9 0.2
29/06:00pm 13.4 4.4 10.4 82 1.6 ENE 48 61 26 33 994.8 994.8 0.2
29/05:30pm 13.6 3.9 10.4 81 1.7 ENE 52 63 28 34 994.4 994.4 0.2
29/05:03pm 13.7 4.0 10.3 80 1.8 ENE 52 72 28 39 994.3 994.3 0.2
29/05:00pm 13.6 4.3 10.4 81 1.7 ENE 50 61 27 33 994.3 994.3 0.2
29/04:30pm 13.6 3.6 10.6 82 1.6 ENE 54 67 29 36 994.0 994.0 0.2
29/04:01pm 13.6 3.5 10.4 81 1.7 ENE 54 76 29 41 993.9 993.9 0.2
29/04:00pm 13.6 3.9 10.6 82 1.6 ENE 52 67 28 36 993.9 993.9 0.2
29/03:56pm 13.6 4.0 10.8 83 1.5 ENE 52 70 28 38 993.9 993.9 0.2
29/03:30pm 13.6 4.4 10.8 83 1.5 ENE 50 61 27 33 993.9 993.9 0.2
29/03:00pm 13.7 4.1 10.7 82 1.6 ENE 52 72 28 39 994.1 994.1 0.2
29/02:43pm 13.6 4.8 10.8 83 1.5 ENE 48 69 26 37 994.3 994.3 0.2
29/02:30pm 13.6 3.6 10.8 83 1.5 ENE 54 70 29 38 994.3 994.3 0.2
29/02:00pm 13.8 4.1 10.6 81 1.7 ENE 52 67 28 36 994.5 994.5 0.2
29/01:30pm 13.7 4.9 10.9 83 1.5 ENE 48 59 26 32 994.7 994.7 0.2
29/01:00pm 13.7 5.3 10.9 83 1.5 ENE 46 57 25 31 995.0 995.0 0.2
29/12:30pm 13.9 5.5 10.9 82 1.6 ENE 46 56 25 30 995.4 995.4 0.2
29/12:00pm 14.0 7.7 11.2 83 1.5 ENE 35 44 19 24 995.8 995.8 0.2
29/11:30am 13.5 7.4 11.6 88 1.0 ENE 35 43 19 23 996.2 996.2 0.2
29/11:00am 13.7 6.0 11.6 87 1.1 ENE 43 50 23 27 996.2 996.2 0.0
29/10:30am 14.0 7.8 11.3 84 1.4 ENE 35 43 19 23 996.8 996.8 0.0
29/10:00am 14.2 7.9 11.2 82 1.6 ENE 35 43 19 23 997.1 997.1 0.0
29/09:30am 14.2 9.9 10.8 80 1.8 ENE 24 32 13 17 997.5 997.5 0.0
29/09:00am 14.5 9.4 10.5 77 2.1 NE 28 33 15 18 997.7 997.7 -
29/08:58am 14.4 9.4 10.8 79 1.9 NE 28 32 15 17 997.8 997.8 -
29/08:30am 12.3 11.2 10.0 86 1.2 NNE 6 9 3 5 998.1 998.1 -
29/08:00am 12.0 11.2 9.7 86 1.2 SW 4 6 2 3 998.2 998.2 -
29/07:30am 11.6 11.1 9.5 87 1.1 NNE 2 4 1 2 998.3 998.3 -
29/07:00am 11.3 9.9 8.9 85 1.2 NNW 6 9 3 5 998.6 998.6 -
29/06:30am 11.8 10.1 8.3 79 1.7 N 7 7 4 4 999.2 999.2 -
29/06:00am 11.6 9.4 7.7 77 1.9 NNE 9 11 5 6 999.2 999.2 -
29/05:30am 11.9 8.6 8.0 77 1.9 N 15 17 8 9 999.6 999.6 -
29/05:00am 11.8 8.5 7.9 77 1.9 N 15 17 8 9 999.6 999.6 -
29/04:30am 11.6 8.9 7.3 75 2.1 N 11 13 6 7 1000.1 1000.1 -
29/04:00am 11.5 7.2 7.2 75 2.1 NNE 19 22 10 12 1000.6 1000.7 -
29/03:30am 11.6 6.8 7.5 76 2.0 NNE 22 26 12 14 1000.8 1000.9 -
29/03:00am 11.4 6.7 7.9 79 1.7 NNE 22 28 12 15 1001.3 1001.4 0.0
29/02:30am 11.7 7.1 8.2 79 1.7 NNE 22 26 12 14 1001.6 1001.7 -
29/02:00am 11.5 7.3 7.6 77 1.9 NNE 19 22 10 12 1002.5 1002.5 -
29/01:30am 11.6 7.4 7.3 75 2.1 NE 19 22 10 12 1002.9 1002.9 -
29/01:00am 12.0 7.8 7.5 74 2.2 NNE 19 20 10 11 1003.2 1003.2 -
29/12:30am 12.3 6.8 7.6 73 2.3 NNE 26 30 14 16 1003.3 1003.3 -
29/12:00am 12.3 8.7 9.7 84 1.3 NNE 19 20 10 11 1003.5 1003.5 -
 
Date/Time
EST
Temp
°C
App
Temp
°C
Dew
Point
°C
Rel
Hum
%
Delta-T
°C
Wind Press
QNH
hPa
Press
MSL
hPa
Rain since
9am
mm
Dir  Spd
km/h
Gust
km/h
Spd
kts
Gust
kts
28/11:30pm 12.4 9.6 10.0 85 1.2 NE 15 20 8 11 1003.6 1003.6 -
28/11:00pm 12.2 10.4 9.4 83 1.4 NNE 9 11 5 6 1004.1 1004.1 -
28/10:30pm 12.3 10.6 9.7 84 1.3 NE 9 11 5 6 1004.5 1004.5 -

Other Formats:

Comma delimited format used in spreadsheet applications
http://www.bom.gov.au/fwo/IDT60801/IDT60801.94988.axf

JavaScript Object Notation format (JSON) in row-major order
http://www.bom.gov.au/fwo/IDT60801/IDT60801.94988.json